Time;durP1;ratioP1;P1;durP2;ratioP2;P2;SDS_P1;SDS_P2;PMS_P1;PMS_P2;Temp;Humidity;BMP_temperature;BMP_pressure;BME280_temperature;BME280_humidity;BME280_pressure;Samples;Min_cycle;Max_cycle;Signal;HPM_P1;HPM_P2
2023/11/08 00:00:46;;;;;;;18.77;7.57;;;;;;;;;;10474204;28;20029;-70
2023/11/08 00:05:47;;;;;;;18.23;7.90;;;;;;;;;;10457136;28;20020;-70
2023/11/08 00:10:49;;;;;;;20.23;7.38;;;;;;;;;;10439478;28;20092;-70
2023/11/08 00:15:49;;;;;;;15.45;7.65;;;;;;;;;;10456469;28;20087;-70
2023/11/08 00:20:50;;;;;;;20.35;7.43;;;;;;;;;;10448438;28;20053;-70
2023/11/08 00:25:50;;;;;;;23.40;7.28;;;;;;;;;;10463772;28;20020;-70
2023/11/08 00:30:52;;;;;;;15.95;6.88;;;;;;;;;;10470275;28;20048;-70
2023/11/08 00:35:52;;;;;;;13.75;7.32;;;;;;;;;;10505144;28;20024;-70
2023/11/08 00:40:53;;;;;;;28.67;8.25;;;;;;;;;;10504724;28;20109;-69
2023/11/08 00:45:53;;;;;;;14.98;6.63;;;;;;;;;;10504215;28;20560;-69
2023/11/08 00:50:54;;;;;;;16.25;6.45;;;;;;;;;;10504150;28;20087;-70
2023/11/08 00:55:55;;;;;;;17.60;7.25;;;;;;;;;;10504143;28;20269;-70
2023/11/08 01:00:55;;;;;;;23.85;8.07;;;;;;;;;;10503748;28;20056;-70
2023/11/08 01:05:56;;;;;;;16.30;6.15;;;;;;;;;;10503139;28;20095;-70
2023/11/08 01:10:56;;;;;;;22.83;9.93;;;;;;;;;;10503465;28;20023;-70
2023/11/08 01:15:56;;;;;;;18.85;6.88;;;;;;;;;;10503027;28;20024;-69
2023/11/08 01:20:57;;;;;;;19.25;6.88;;;;;;;;;;10503536;28;20024;-70
2023/11/08 01:25:57;;;;;;;14.02;7.30;;;;;;;;;;10502571;28;20226;-71
2023/11/08 01:30:57;;;;;;;16.73;8.00;;;;;;;;;;10502797;28;20063;-71
2023/11/08 01:35:58;;;;;;;19.55;6.88;;;;;;;;;;10501966;28;20070;-70
2023/11/08 01:40:58;;;;;;;16.88;7.75;;;;;;;;;;10493541;28;20338;-71
2023/11/08 01:46:03;;;;;;;22.70;6.95;;;;;;;;;;10484445;28;20253;-71
2023/11/08 01:51:06;;;;;;;14.85;7.18;;;;;;;;;;10505395;28;20203;-70
2023/11/08 01:56:07;;;;;;;25.70;8.38;;;;;;;;;;10481836;28;20196;-71
2023/11/08 02:01:07;;;;;;;21.65;6.78;;;;;;;;;;10501321;28;20040;-71
2023/11/08 02:06:10;;;;;;;17.55;7.63;;;;;;;;;;10501046;28;20032;-71
2023/11/08 02:11:12;;;;;;;25.20;7.40;;;;;;;;;;10501019;28;20020;-71
2023/11/08 02:16:13;;;;;;;14.50;6.90;;;;;;;;;;10482671;28;20032;-70
2023/11/08 02:21:13;;;;;;;19.03;6.63;;;;;;;;;;10500866;28;20036;-69
2023/11/08 02:26:13;;;;;;;18.00;6.57;;;;;;;;;;10501216;28;20491;-70
2023/11/08 02:31:14;;;;;;;16.92;6.50;;;;;;;;;;10499965;28;20344;-69
2023/11/08 02:36:14;;;;;;;16.38;7.20;;;;;;;;;;10499784;28;20036;-70
2023/11/08 02:41:14;;;;;;;22.85;6.80;;;;;;;;;;10499894;28;20203;-70
2023/11/08 02:46:15;;;;;;;16.88;6.40;;;;;;;;;;10457944;28;20043;-71
2023/11/08 02:51:15;;;;;;;19.27;6.95;;;;;;;;;;10482081;28;20084;-71
2023/11/08 02:56:16;;;;;;;14.60;7.47;;;;;;;;;;10499708;28;20020;-70
2023/11/08 03:01:16;;;;;;;21.53;7.00;;;;;;;;;;10499754;28;20290;-70
2023/11/08 03:06:19;;;;;;;15.75;6.90;;;;;;;;;;10499318;28;20036;-70
2023/11/08 03:11:19;;;;;;;15.93;6.90;;;;;;;;;;10500682;28;20323;-69
2023/11/08 03:16:20;;;;;;;14.63;7.20;;;;;;;;;;10480868;28;20614;-71
2023/11/08 03:21:20;;;;;;;21.10;7.43;;;;;;;;;;10498727;28;20036;-70
2023/11/08 03:26:21;;;;;;;19.95;7.18;;;;;;;;;;10499123;28;20104;-70
2023/11/08 03:31:21;;;;;;;16.27;6.68;;;;;;;;;;10499161;28;20148;-71
2023/11/08 03:36:23;;;;;;;15.85;7.80;;;;;;;;;;10498713;28;20040;-71
2023/11/08 03:41:25;;;;;;;27.65;9.73;;;;;;;;;;10498908;28;20114;-70
2023/11/08 03:46:25;;;;;;;15.23;7.00;;;;;;;;;;10498645;28;20215;-70
2023/11/08 03:51:26;;;;;;;26.33;7.17;;;;;;;;;;10502410;28;20029;-70
2023/11/08 03:56:27;;;;;;;17.35;6.15;;;;;;;;;;10506248;28;20017;-70
2023/11/08 04:01:29;;;;;;;20.77;6.68;;;;;;;;;;10488166;28;20028;-69
2023/11/08 04:06:29;;;;;;;15.88;6.90;;;;;;;;;;10505693;28;20021;-70
2023/11/08 04:11:30;;;;;;;20.67;7.65;;;;;;;;;;10505836;28;20107;-69
2023/11/08 04:16:31;;;;;;;17.17;6.68;;;;;;;;;;10505473;28;20118;-71
2023/11/08 04:21:32;;;;;;;21.58;7.47;;;;;;;;;;10505362;28;20168;-70
2023/11/08 04:26:32;;;;;;;17.88;6.80;;;;;;;;;;10505408;28;20144;-69
2023/11/08 04:31:33;;;;;;;17.98;6.30;;;;;;;;;;10504655;28;20043;-70
2023/11/08 04:36:33;;;;;;;15.32;6.70;;;;;;;;;;10505046;28;20040;-69
2023/11/08 04:41:33;;;;;;;15.05;7.35;;;;;;;;;;10513845;28;20077;-70
2023/11/08 04:46:34;;;;;;;17.80;6.45;;;;;;;;;;10510813;28;20059;-70
2023/11/08 04:51:34;;;;;;;22.92;7.10;;;;;;;;;;10511820;28;20029;-70
2023/11/08 04:56:35;;;;;;;17.53;5.40;;;;;;;;;;10505441;28;20043;-69
2023/11/08 05:01:35;;;;;;;14.33;5.90;;;;;;;;;;10502250;28;20365;-69
2023/11/08 05:06:35;;;;;;;21.40;6.10;;;;;;;;;;10478065;28;20036;-69
2023/11/08 05:11:35;;;;;;;14.37;5.90;;;;;;;;;;10502235;28;20036;-70
2023/11/08 05:16:36;;;;;;;17.98;5.97;;;;;;;;;;10502994;28;20020;-70
2023/11/08 05:21:36;;;;;;;21.07;5.93;;;;;;;;;;10501979;28;20288;-70
2023/11/08 05:26:37;;;;;;;15.07;5.40;;;;;;;;;;10500714;28;20125;-69
2023/11/08 05:31:37;;;;;;;17.90;5.95;;;;;;;;;;10500627;28;20303;-69
2023/11/08 05:36:37;;;;;;;9.25;5.55;;;;;;;;;;10499487;28;20032;-69
2023/11/08 05:41:38;;;;;;;13.32;5.13;;;;;;;;;;10498953;28;20036;-69
2023/11/08 05:46:38;;;;;;;13.02;4.22;;;;;;;;;;10500379;28;20320;-69
2023/11/08 05:51:38;;;;;;;13.60;4.43;;;;;;;;;;10501218;28;20353;-69
2023/11/08 05:56:38;;;;;;;18.93;4.10;;;;;;;;;;10500876;28;20040;-70
2023/11/08 06:01:39;;;;;;;9.45;4.22;;;;;;;;;;10481635;28;20055;-70
2023/11/08 06:06:39;;;;;;;18.27;5.40;;;;;;;;;;10497072;28;20028;-70
2023/11/08 06:11:40;;;;;;;9.55;3.33;;;;;;;;;;10498022;28;20029;-70
2023/11/08 06:16:41;;;;;;;11.10;3.70;;;;;;;;;;10498032;28;20028;-70
2023/11/08 06:21:42;;;;;;;14.27;3.83;;;;;;;;;;10500636;28;20560;-70
2023/11/08 06:26:43;;;;;;;17.15;5.13;;;;;;;;;;10499941;28;20028;-70
2023/11/08 06:31:43;;;;;;;16.17;4.47;;;;;;;;;;10499320;28;20029;-70
2023/11/08 06:36:44;;;;;;;15.50;4.13;;;;;;;;;;10499755;28;20139;-68
2023/11/08 06:41:44;;;;;;;23.67;4.95;;;;;;;;;;10499111;28;20372;-69
2023/11/08 06:46:44;;;;;;;16.48;4.43;;;;;;;;;;10498911;28;20258;-68
2023/11/08 06:51:46;;;;;;;19.33;4.88;;;;;;;;;;10498875;28;20048;-71
2023/11/08 06:56:46;;;;;;;21.20;5.15;;;;;;;;;;10499485;28;20318;-69
2023/11/08 07:01:47;;;;;;;20.75;6.22;;;;;;;;;;10480627;28;20036;-70
2023/11/08 07:06:47;;;;;;;18.63;4.22;;;;;;;;;;10498639;28;20161;-69
2023/11/08 07:11:48;;;;;;;14.48;4.35;;;;;;;;;;10480750;28;20036;-69
2023/11/08 07:16:48;;;;;;;17.90;5.40;;;;;;;;;;10498766;28;20040;-69
2023/11/08 07:21:49;;;;;;;24.53;5.60;;;;;;;;;;10514585;28;20025;-70
2023/11/08 07:26:51;;;;;;;13.10;5.10;;;;;;;;;;10503533;28;20316;-70
2023/11/08 07:31:51;;;;;;;13.15;5.30;;;;;;;;;;10506789;28;20350;-69
2023/11/08 07:36:52;;;;;;;27.10;5.25;;;;;;;;;;10507160;28;20052;-69
2023/11/08 07:41:52;;;;;;;16.23;4.40;;;;;;;;;;10506638;28;20025;-69
2023/11/08 07:46:52;;;;;;;23.70;6.13;;;;;;;;;;10506337;28;20032;-70
2023/11/08 07:51:53;;;;;;;17.73;5.25;;;;;;;;;;10501165;28;20093;-70
2023/11/08 07:56:53;;;;;;;20.88;5.88;;;;;;;;;;10501081;28;20202;-70
2023/11/08 08:01:53;;;;;;;17.02;5.78;;;;;;;;;;10501010;28;20043;-70
2023/11/08 08:06:53;;;;;;;13.25;5.05;;;;;;;;;;10499446;28;20334;-70
2023/11/08 08:11:54;;;;;;;19.00;6.45;;;;;;;;;;10499524;28;20384;-70
2023/11/08 08:16:55;;;;;;;20.95;7.30;;;;;;;;;;10499132;28;20040;-69
2023/11/08 08:21:58;;;;;;;23.75;6.90;;;;;;;;;;10498683;28;20028;-69
2023/11/08 08:26:59;;;;;;;20.05;7.60;;;;;;;;;;10498881;28;20220;-70
2023/11/08 08:31:59;;;;;;;23.98;8.43;;;;;;;;;;10498661;28;20172;-69
2023/11/08 08:36:59;;;;;;;17.38;7.45;;;;;;;;;;10498393;28;20040;-70
2023/11/08 08:42:01;;;;;;;29.58;6.57;;;;;;;;;;10499117;28;20464;-70
2023/11/08 08:47:01;;;;;;;20.48;7.45;;;;;;;;;;10499769;28;20334;-69
2023/11/08 08:52:02;;;;;;;22.13;6.75;;;;;;;;;;10498715;28;20040;-69
2023/11/08 08:57:02;;;;;;;16.73;5.88;;;;;;;;;;10498972;28;20051;-70
2023/11/08 09:02:03;;;;;;;28.47;6.97;;;;;;;;;;10499264;28;20070;-70
2023/11/08 09:07:04;;;;;;;16.20;7.43;;;;;;;;;;10480713;28;20048;-70
2023/11/08 09:12:05;;;;;;;22.05;7.03;;;;;;;;;;10498600;28;20040;-70
2023/11/08 09:17:05;;;;;;;23.75;7.55;;;;;;;;;;10502228;28;20036;-70
2023/11/08 09:22:07;;;;;;;22.98;6.53;;;;;;;;;;10498485;28;20139;-70
2023/11/08 09:27:07;;;;;;;24.40;8.52;;;;;;;;;;10497865;28;20342;-70
2023/11/08 09:32:08;;;;;;;21.52;8.10;;;;;;;;;;10488210;28;20036;-70
2023/11/08 09:37:11;;;;;;;34.47;11.73;;;;;;;;;;10478443;28;20350;-70
2023/11/08 09:42:13;;;;;;;29.45;7.88;;;;;;;;;;10479018;28;20412;-69
2023/11/08 09:47:13;;;;;;;19.73;6.70;;;;;;;;;;10495143;28;20036;-69
2023/11/08 09:52:14;;;;;;;23.20;7.85;;;;;;;;;;10496319;28;20509;-70
2023/11/08 09:57:15;;;;;;;23.97;8.60;;;;;;;;;;10496119;28;20033;-69
2023/11/08 10:02:15;;;;;;;27.13;9.25;;;;;;;;;;10497024;28;20028;-71
2023/11/08 10:07:16;;;;;;;25.70;9.35;;;;;;;;;;10497071;28;20036;-70
2023/11/08 10:12:19;;;;;;;28.77;9.50;;;;;;;;;;10497229;28;20116;-71
2023/11/08 10:17:33;;;;;;;25.80;10.68;;;;;;;;;;10495479;28;20024;-70
2023/11/08 10:22:33;;;;;;;21.48;9.80;;;;;;;;;;10495945;28;20028;-72
2023/11/08 10:27:34;;;;;;;28.83;10.83;;;;;;;;;;10495425;28;20036;-70
2023/11/08 10:32:36;;;;;;;38.83;11.65;;;;;;;;;;10494640;28;20330;-69
2023/11/08 10:37:36;;;;;;;27.30;10.75;;;;;;;;;;10495390;28;20367;-68
2023/11/08 10:42:37;;;;;;;27.63;10.55;;;;;;;;;;10494533;28;20028;-69
2023/11/08 10:47:39;;;;;;;17.15;7.93;;;;;;;;;;10494144;28;20063;-69
2023/11/08 10:52:39;;;;;;;14.30;5.50;;;;;;;;;;10459932;28;20025;-68
2023/11/08 10:57:41;;;;;;;19.05;6.53;;;;;;;;;;10488157;28;20028;-70
2023/11/08 11:02:41;;;;;;;7.20;3.70;;;;;;;;;;10493220;28;20141;-71
2023/11/08 11:07:42;;;;;;;11.98;4.30;;;;;;;;;;10494189;28;20032;-70
2023/11/08 11:12:46;;;;;;;10.73;3.80;;;;;;;;;;10494188;28;20389;-69
2023/11/08 11:17:55;;;;;;;8.93;3.60;;;;;;;;;;10493574;28;20216;-69
2023/11/08 11:22:55;;;;;;;12.15;4.30;;;;;;;;;;10494423;28;20307;-70
2023/11/08 11:27:55;;;;;;;4.90;2.90;;;;;;;;;;10493723;28;20051;-69
2023/11/08 11:32:57;;;;;;;6.50;3.47;;;;;;;;;;10493211;28;20348;-69
2023/11/08 11:38:07;;;;;;;2.80;1.60;;;;;;;;;;10493042;28;20045;-69
2023/11/08 11:43:26;;;;;;;5.03;2.60;;;;;;;;;;10493625;28;20028;-69
2023/11/08 11:48:32;;;;;;;4.50;1.45;;;;;;;;;;10493233;28;20421;-70
2023/11/08 11:53:33;;;;;;;3.75;1.80;;;;;;;;;;10492732;28;20139;-69
2023/11/08 11:58:35;;;;;;;6.00;1.88;;;;;;;;;;10492641;28;20295;-69
2023/11/08 12:03:35;;;;;;;5.55;1.63;;;;;;;;;;10493555;28;20341;-69
2023/11/08 12:08:35;;;;;;;2.28;1.13;;;;;;;;;;10492884;28;20051;-69
2023/11/08 12:13:46;;;;;;;1.77;1.33;;;;;;;;;;10480666;28;20123;-70
2023/11/08 12:18:47;;;;;;;3.97;1.30;;;;;;;;;;10500266;28;20381;-70
2023/11/08 12:23:48;;;;;;;3.40;2.10;;;;;;;;;;10499977;28;20055;-68
2023/11/08 12:28:49;;;;;;;4.03;1.58;;;;;;;;;;10502258;28;20085;-69
2023/11/08 12:33:49;;;;;;;2.70;1.23;;;;;;;;;;10499891;28;20044;-69
2023/11/08 12:38:49;;;;;;;2.28;1.40;;;;;;;;;;10498858;28;20368;-69
2023/11/08 12:43:57;;;;;;;3.43;1.80;;;;;;;;;;10499687;28;20377;-70
2023/11/08 12:48:58;;;;;;;3.15;2.10;;;;;;;;;;10501146;28;20032;-69
2023/11/08 12:54:01;;;;;;;3.42;1.88;;;;;;;;;;10504492;28;20261;-70
2023/11/08 12:59:17;;;;;;;3.60;2.05;;;;;;;;;;10503607;28;20031;-70
2023/11/08 13:04:19;;;;;;;3.33;2.00;;;;;;;;;;10503420;28;20058;-69
2023/11/08 13:09:19;;;;;;;4.05;2.70;;;;;;;;;;10502892;28;20054;-69
2023/11/08 13:14:19;;;;;;;3.97;2.42;;;;;;;;;;10503168;28;20051;-70
2023/11/08 13:19:20;;;;;;;3.53;2.00;;;;;;;;;;10502938;28;20367;-70
2023/11/08 13:24:20;;;;;;;5.78;3.17;;;;;;;;;;10502389;28;20398;-69
2023/11/08 13:29:21;;;;;;;5.38;2.97;;;;;;;;;;10502072;28;20055;-69
2023/11/08 13:34:21;;;;;;;6.65;3.17;;;;;;;;;;10502034;28;20115;-69
2023/11/08 13:39:21;;;;;;;4.00;2.63;;;;;;;;;;10501805;28;20417;-69
2023/11/08 13:44:22;;;;;;;3.58;2.75;;;;;;;;;;10501004;28;20389;-69
2023/11/08 13:49:23;;;;;;;9.02;3.28;;;;;;;;;;10501102;28;20369;-69
2023/11/08 13:54:23;;;;;;;5.70;2.47;;;;;;;;;;10501339;28;20386;-69
2023/11/08 13:59:25;;;;;;;7.70;2.88;;;;;;;;;;10500555;28;20029;-70
2023/11/08 14:04:26;;;;;;;4.82;3.15;;;;;;;;;;10501728;28;20184;-66
2023/11/08 14:09:26;;;;;;;4.18;2.55;;;;;;;;;;10483979;28;20329;-72
2023/11/08 14:14:27;;;;;;;2.20;1.75;;;;;;;;;;10500978;28;20043;-73
2023/11/08 14:19:28;;;;;;;2.25;1.80;;;;;;;;;;10501252;28;20241;-73
2023/11/08 14:24:28;;;;;;;5.03;2.50;;;;;;;;;;10500968;28;20092;-72
2023/11/08 14:29:30;;;;;;;3.38;1.83;;;;;;;;;;10500462;28;20307;-70
2023/11/08 14:34:30;;;;;;;4.45;2.10;;;;;;;;;;10499305;28;20090;-74
2023/11/08 14:39:30;;;;;;;6.28;3.03;;;;;;;;;;10500311;28;20055;-72
2023/11/08 14:44:31;;;;;;;5.50;2.33;;;;;;;;;;10498500;28;20108;-71
2023/11/08 14:49:31;;;;;;;6.87;2.80;;;;;;;;;;10497888;28;20027;-71
2023/11/08 14:54:31;;;;;;;3.78;2.90;;;;;;;;;;10498072;28;20030;-71
2023/11/08 14:59:33;;;;;;;8.68;2.20;;;;;;;;;;10497717;28;20318;-70
2023/11/08 15:04:33;;;;;;;5.07;2.47;;;;;;;;;;10498088;28;20024;-71
2023/11/08 15:09:34;;;;;;;4.60;2.10;;;;;;;;;;10497447;28;20311;-71
2023/11/08 15:14:36;;;;;;;5.75;2.35;;;;;;;;;;10497754;28;20052;-71
2023/11/08 15:19:36;;;;;;;4.40;2.50;;;;;;;;;;10511525;28;20024;-72
2023/11/08 15:24:37;;;;;;;6.70;3.75;;;;;;;;;;10497460;28;20028;-72
2023/11/08 15:29:37;;;;;;;7.32;3.15;;;;;;;;;;10497020;28;20242;-76
2023/11/08 15:34:38;;;;;;;4.95;3.00;;;;;;;;;;10497107;28;20036;-72
2023/11/08 15:39:38;;;;;;;7.63;3.58;;;;;;;;;;10479255;28;20111;-72
2023/11/08 15:44:40;;;;;;;5.68;2.97;;;;;;;;;;10484470;28;20032;-73
2023/11/08 15:49:41;;;;;;;5.32;3.80;;;;;;;;;;10504409;28;20032;-72
2023/11/08 15:54:41;;;;;;;6.90;3.28;;;;;;;;;;10504527;28;20050;-77
2023/11/08 15:59:41;;;;;;;9.05;2.63;;;;;;;;;;10504692;28;20048;-73
2023/11/08 16:04:42;;;;;;;7.30;3.55;;;;;;;;;;10504032;28;20092;-73
2023/11/08 16:09:42;;;;;;;5.78;3.40;;;;;;;;;;10504036;28;20024;-72
2023/11/08 16:14:42;;;;;;;6.82;3.35;;;;;;;;;;10504009;28;20319;-76
2023/11/08 16:19:42;;;;;;;5.20;3.75;;;;;;;;;;10504316;28;20370;-73
2023/11/08 16:24:43;;;;;;;6.28;3.72;;;;;;;;;;10503465;28;20048;-70
2023/11/08 16:29:44;;;;;;;7.63;4.63;;;;;;;;;;10503409;28;20016;-74
2023/11/08 16:34:47;;;;;;;8.80;4.72;;;;;;;;;;10502916;28;20098;-74
2023/11/08 16:39:50;;;;;;;9.10;4.70;;;;;;;;;;10485489;28;20353;-73
2023/11/08 16:44:50;;;;;;;12.55;4.97;;;;;;;;;;10502906;28;20017;-74
2023/11/08 16:49:51;;;;;;;12.95;6.47;;;;;;;;;;10502895;28;20025;-76
2023/11/08 16:54:52;;;;;;;10.80;5.55;;;;;;;;;;10507993;28;20024;-76
2023/11/08 16:59:53;;;;;;;11.15;6.60;;;;;;;;;;10501189;28;20039;-73
2023/11/08 17:04:54;;;;;;;9.82;5.60;;;;;;;;;;10501692;28;20097;-73
2023/11/08 17:09:54;;;;;;;10.80;6.70;;;;;;;;;;10501521;28;20033;-73
2023/11/08 17:14:54;;;;;;;14.50;7.13;;;;;;;;;;10501579;28;20338;-73
2023/11/08 17:19:55;;;;;;;12.67;7.10;;;;;;;;;;10502010;28;20184;-73
2023/11/08 17:24:56;;;;;;;10.70;6.47;;;;;;;;;;10504216;28;20059;-72
2023/11/08 17:29:56;;;;;;;14.48;7.75;;;;;;;;;;10501071;28;20367;-73
2023/11/08 17:35:02;;;;;;;19.20;8.60;;;;;;;;;;10501208;28;20042;-72
2023/11/08 17:40:05;;;;;;;13.02;7.05;;;;;;;;;;10477716;28;20045;-74
2023/11/08 17:45:08;;;;;;;11.82;6.20;;;;;;;;;;10456148;28;20044;-74
2023/11/08 17:50:09;;;;;;;13.63;6.50;;;;;;;;;;10474520;28;20032;-74
2023/11/08 17:55:10;;;;;;;21.75;7.95;;;;;;;;;;10481818;28;20053;-74
2023/11/08 18:00:10;;;;;;;14.40;7.28;;;;;;;;;;10476430;28;20028;-78
2023/11/08 18:05:11;;;;;;;15.98;7.63;;;;;;;;;;10480247;28;20036;-78
2023/11/08 18:10:11;;;;;;;18.10;7.97;;;;;;;;;;10482402;28;20121;-76
2023/11/08 18:15:11;;;;;;;13.77;7.97;;;;;;;;;;10464247;28;20117;-72
2023/11/08 18:20:11;;;;;;;13.13;6.80;;;;;;;;;;10481370;28;20315;-72
2023/11/08 18:25:16;;;;;;;13.93;6.63;;;;;;;;;;10477788;28;20094;-72
2023/11/08 18:30:19;;;;;;;11.93;6.30;;;;;;;;;;10457161;28;20025;-72
2023/11/08 18:35:19;;;;;;;10.38;6.35;;;;;;;;;;10471667;28;20411;-74
2023/11/08 18:40:21;;;;;;;12.65;7.43;;;;;;;;;;10477145;28;20032;-72
2023/11/08 18:45:21;;;;;;;14.32;8.82;;;;;;;;;;10470565;28;20050;-73
2023/11/08 18:50:21;;;;;;;17.07;8.43;;;;;;;;;;10475287;28;20060;-78
2023/11/08 18:55:22;;;;;;;14.17;9.30;;;;;;;;;;10478151;28;20028;-74
2023/11/08 19:00:22;;;;;;;18.50;10.70;;;;;;;;;;10475345;28;20235;-75
2023/11/08 19:05:23;;;;;;;16.52;9.32;;;;;;;;;;10466019;28;20052;-76
2023/11/08 19:10:23;;;;;;;20.30;9.90;;;;;;;;;;10478375;28;20039;-70
2023/11/08 19:15:23;;;;;;;16.88;10.75;;;;;;;;;;10467206;28;20041;-75
2023/11/08 19:20:24;;;;;;;22.83;10.87;;;;;;;;;;10457877;28;20362;-70
2023/11/08 19:25:24;;;;;;;17.75;11.00;;;;;;;;;;10471551;28;20101;-69
2023/11/08 19:30:26;;;;;;;17.83;10.05;;;;;;;;;;10475100;28;20049;-82
2023/11/08 19:35:27;;;;;;;15.57;10.68;;;;;;;;;;10465639;28;20028;-72
2023/11/08 19:40:30;;;;;;;15.57;9.23;;;;;;;;;;10480988;28;20064;-72
2023/11/08 19:45:34;;;;;;;21.17;11.18;;;;;;;;;;10482859;28;20375;-71
2023/11/08 19:50:34;;;;;;;17.70;10.25;;;;;;;;;;10481505;28;20044;-71
2023/11/08 19:55:35;;;;;;;22.08;12.95;;;;;;;;;;10478148;28;20029;-72
2023/11/08 20:00:36;;;;;;;23.88;10.77;;;;;;;;;;10475693;28;20032;-71
2023/11/08 20:05:36;;;;;;;16.60;10.95;;;;;;;;;;10477540;28;20215;-71
2023/11/08 20:10:38;;;;;;;15.30;10.13;;;;;;;;;;10492787;28;20210;-70
2023/11/08 20:15:38;;;;;;;17.73;9.88;;;;;;;;;;10467680;28;20028;-70
2023/11/08 20:20:38;;;;;;;14.60;9.75;;;;;;;;;;10472747;28;20035;-70
2023/11/08 20:25:38;;;;;;;15.10;9.77;;;;;;;;;;10483913;28;20023;-71
2023/11/08 20:30:39;;;;;;;15.73;9.27;;;;;;;;;;10477362;28;20037;-71
2023/11/08 20:35:40;;;;;;;16.50;8.93;;;;;;;;;;10476636;28;20316;-71
2023/11/08 20:40:40;;;;;;;13.07;8.77;;;;;;;;;;10482529;28;20029;-71
2023/11/08 20:45:41;;;;;;;10.40;7.38;;;;;;;;;;10479010;28;20024;-71
2023/11/08 20:50:41;;;;;;;15.07;7.07;;;;;;;;;;10466576;28;20024;-69
2023/11/08 20:55:43;;;;;;;11.47;6.47;;;;;;;;;;10479637;28;20452;-70
2023/11/08 21:00:45;;;;;;;8.05;6.05;;;;;;;;;;10477316;28;20034;-69
2023/11/08 21:05:46;;;;;;;7.80;5.72;;;;;;;;;;10476211;28;20036;-70
2023/11/08 21:10:46;;;;;;;7.00;5.47;;;;;;;;;;10466249;28;20307;-70
2023/11/08 21:15:48;;;;;;;8.75;5.07;;;;;;;;;;10479287;28;20056;-69
2023/11/08 21:20:48;;;;;;;10.68;6.15;;;;;;;;;;10475082;28;20311;-71
2023/11/08 21:25:49;;;;;;;7.82;5.20;;;;;;;;;;10480685;28;20265;-71
2023/11/08 21:30:50;;;;;;;6.75;5.15;;;;;;;;;;10479171;28;20149;-70
2023/11/08 21:35:51;;;;;;;7.88;5.25;;;;;;;;;;10467616;28;20029;-70
2023/11/08 21:40:51;;;;;;;7.57;5.70;;;;;;;;;;10471663;28;20067;-70
2023/11/08 21:45:51;;;;;;;6.00;4.40;;;;;;;;;;10472994;28;20390;-70
2023/11/08 21:50:51;;;;;;;6.17;3.97;;;;;;;;;;10475994;28;20035;-69
2023/11/08 21:55:52;;;;;;;3.17;2.60;;;;;;;;;;10466911;28;20079;-72
2023/11/08 22:00:52;;;;;;;6.40;2.83;;;;;;;;;;10471838;28;20318;-74
2023/11/08 22:05:55;;;;;;;3.70;2.93;;;;;;;;;;10481820;28;20024;-71
2023/11/08 22:10:55;;;;;;;10.13;3.72;;;;;;;;;;10472529;28;20268;-72
2023/11/08 22:15:56;;;;;;;4.25;3.40;;;;;;;;;;10478154;28;20314;-73
2023/11/08 22:20:56;;;;;;;5.40;3.88;;;;;;;;;;10471450;28;20115;-74
2023/11/08 22:25:56;;;;;;;6.68;3.83;;;;;;;;;;10472836;28;20020;-75
2023/11/08 22:30:56;;;;;;;7.50;4.03;;;;;;;;;;10478471;28;20214;-74
2023/11/08 22:35:59;;;;;;;8.80;4.47;;;;;;;;;;10475508;28;20286;-79
2023/11/08 22:41:00;;;;;;;9.48;4.45;;;;;;;;;;10477588;28;20283;-74
2023/11/08 22:46:00;;;;;;;8.43;4.68;;;;;;;;;;10473879;28;20024;-78
2023/11/08 22:51:00;;;;;;;6.73;4.53;;;;;;;;;;10490106;28;20036;-73
2023/11/08 22:56:01;;;;;;;6.63;3.70;;;;;;;;;;10479011;28;20044;-71
2023/11/08 23:01:01;;;;;;;7.72;3.72;;;;;;;;;;10497499;28;20278;-74
2023/11/08 23:06:01;;;;;;;5.93;4.03;;;;;;;;;;10497547;28;20386;-73
2023/11/08 23:11:01;;;;;;;3.93;3.07;;;;;;;;;;10478811;28;20055;-74
2023/11/08 23:16:02;;;;;;;4.03;3.58;;;;;;;;;;10499501;28;20043;-74
2023/11/08 23:21:02;;;;;;;4.00;3.47;;;;;;;;;;10499135;28;20048;-74
2023/11/08 23:26:02;;;;;;;6.50;4.43;;;;;;;;;;10498497;28;20196;-73
2023/11/08 23:31:03;;;;;;;5.88;4.10;;;;;;;;;;10499187;28;20024;-73
2023/11/08 23:36:03;;;;;;;5.28;3.88;;;;;;;;;;10498909;28;20028;-74
2023/11/08 23:41:04;;;;;;;6.22;4.00;;;;;;;;;;10498892;28;20043;-75
2023/11/08 23:46:05;;;;;;;6.03;4.38;;;;;;;;;;10499099;28;20394;-74
2023/11/08 23:51:05;;;;;;;5.72;3.97;;;;;;;;;;10498831;28;20024;-73
2023/11/08 23:56:06;;;;;;;6.57;4.53;;;;;;;;;;10498311;28;20098;-73
